sensor_id;sensor_type;location;lat;lon;timestamp;P1;durP1;ratioP1;P2;durP2;ratioP2
62338;SDS011;48368;53.406;6.214;2023-05-10T00:01:04;19.60;;;12.68;;
62338;SDS011;48368;53.406;6.214;2023-05-10T00:03:30;20.20;;;12.48;;
62338;SDS011;48368;53.406;6.214;2023-05-10T00:05:56;22.15;;;12.85;;
62338;SDS011;48368;53.406;6.214;2023-05-10T00:08:22;20.48;;;10.82;;
62338;SDS011;48368;53.406;6.214;2023-05-10T00:10:47;19.70;;;10.60;;
62338;SDS011;48368;53.406;6.214;2023-05-10T00:13:13;21.92;;;10.73;;
62338;SDS011;48368;53.406;6.214;2023-05-10T00:15:39;20.10;;;10.90;;
62338;SDS011;48368;53.406;6.214;2023-05-10T00:18:05;21.35;;;10.70;;
62338;SDS011;48368;53.406;6.214;2023-05-10T00:20:30;22.77;;;10.73;;
62338;SDS011;48368;53.406;6.214;2023-05-10T00:22:56;21.05;;;11.15;;
62338;SDS011;48368;53.406;6.214;2023-05-10T00:25:22;23.20;;;10.88;;
62338;SDS011;48368;53.406;6.214;2023-05-10T00:27:49;20.50;;;10.20;;
62338;SDS011;48368;53.406;6.214;2023-05-10T00:30:14;21.88;;;11.07;;
62338;SDS011;48368;53.406;6.214;2023-05-10T00:32:40;21.67;;;10.75;;
62338;SDS011;48368;53.406;6.214;2023-05-10T00:35:06;22.20;;;10.70;;
62338;SDS011;48368;53.406;6.214;2023-05-10T00:37:32;22.27;;;11.70;;
62338;SDS011;48368;53.406;6.214;2023-05-10T00:39:58;20.55;;;10.75;;
62338;SDS011;48368;53.406;6.214;2023-05-10T00:42:23;23.83;;;11.27;;
62338;SDS011;48368;53.406;6.214;2023-05-10T00:44:49;21.00;;;10.60;;
62338;SDS011;48368;53.406;6.214;2023-05-10T00:47:15;21.65;;;10.95;;
62338;SDS011;48368;53.406;6.214;2023-05-10T00:49:41;22.38;;;11.15;;
62338;SDS011;48368;53.406;6.214;2023-05-10T00:52:08;20.13;;;10.18;;
62338;SDS011;48368;53.406;6.214;2023-05-10T00:54:34;18.25;;;9.85;;
62338;SDS011;48368;53.406;6.214;2023-05-10T00:57:00;20.77;;;10.57;;
62338;SDS011;48368;53.406;6.214;2023-05-10T00:59:26;17.27;;;9.90;;
62338;SDS011;48368;53.406;6.214;2023-05-10T01:01:52;15.85;;;9.60;;
62338;SDS011;48368;53.406;6.214;2023-05-10T01:04:18;14.57;;;9.18;;
62338;SDS011;48368;53.406;6.214;2023-05-10T01:06:50;15.35;;;9.18;;
62338;SDS011;48368;53.406;6.214;2023-05-10T01:09:17;14.63;;;8.63;;
62338;SDS011;48368;53.406;6.214;2023-05-10T01:11:43;13.20;;;8.35;;
62338;SDS011;48368;53.406;6.214;2023-05-10T01:14:09;14.35;;;8.63;;
62338;SDS011;48368;53.406;6.214;2023-05-10T01:16:38;13.35;;;8.57;;
62338;SDS011;48368;53.406;6.214;2023-05-10T01:19:06;13.07;;;8.82;;
62338;SDS011;48368;53.406;6.214;2023-05-10T01:33:35;12.52;;;8.45;;
62338;SDS011;48368;53.406;6.214;2023-05-10T01:36:16;12.85;;;9.13;;
62338;SDS011;48368;53.406;6.214;2023-05-10T01:39:36;13.43;;;8.20;;
62338;SDS011;48368;53.406;6.214;2023-05-10T01:41:50;11.13;;;7.53;;
62338;SDS011;48368;53.406;6.214;2023-05-10T01:44:34;11.48;;;7.93;;
62338;SDS011;48368;53.406;6.214;2023-05-10T01:49:36;10.30;;;7.40;;
62338;SDS011;48368;53.406;6.214;2023-05-10T01:52:12;9.30;;;7.57;;
62338;SDS011;48368;53.406;6.214;2023-05-10T01:54:48;8.45;;;6.90;;
62338;SDS011;48368;53.406;6.214;2023-05-10T01:57:18;10.00;;;6.57;;
62338;SDS011;48368;53.406;6.214;2023-05-10T01:59:47;8.60;;;7.10;;
62338;SDS011;48368;53.406;6.214;2023-05-10T02:02:15;9.45;;;7.72;;
62338;SDS011;48368;53.406;6.214;2023-05-10T02:04:45;8.48;;;7.00;;
62338;SDS011;48368;53.406;6.214;2023-05-10T02:07:12;9.15;;;7.78;;
62338;SDS011;48368;53.406;6.214;2023-05-10T02:09:39;10.88;;;7.90;;
62338;SDS011;48368;53.406;6.214;2023-05-10T02:12:09;11.50;;;8.23;;
62338;SDS011;48368;53.406;6.214;2023-05-10T02:14:37;9.25;;;7.82;;
62338;SDS011;48368;53.406;6.214;2023-05-10T02:17:05;10.00;;;7.72;;
62338;SDS011;48368;53.406;6.214;2023-05-10T02:19:32;8.77;;;7.15;;
62338;SDS011;48368;53.406;6.214;2023-05-10T02:22:00;8.00;;;6.40;;
62338;SDS011;48368;53.406;6.214;2023-05-10T02:24:28;7.97;;;6.43;;
62338;SDS011;48368;53.406;6.214;2023-05-10T02:26:55;5.90;;;4.72;;
62338;SDS011;48368;53.406;6.214;2023-05-10T02:29:23;5.47;;;4.45;;
62338;SDS011;48368;53.406;6.214;2023-05-10T02:31:51;4.70;;;3.88;;
62338;SDS011;48368;53.406;6.214;2023-05-10T02:34:19;6.38;;;4.93;;
62338;SDS011;48368;53.406;6.214;2023-05-10T02:36:47;7.43;;;5.65;;
62338;SDS011;48368;53.406;6.214;2023-05-10T02:39:13;6.28;;;5.28;;
62338;SDS011;48368;53.406;6.214;2023-05-10T02:41:40;6.90;;;5.35;;
62338;SDS011;48368;53.406;6.214;2023-05-10T02:44:08;10.18;;;6.18;;
62338;SDS011;48368;53.406;6.214;2023-05-10T02:46:35;6.35;;;5.38;;
62338;SDS011;48368;53.406;6.214;2023-05-10T02:49:02;8.38;;;6.18;;
62338;SDS011;48368;53.406;6.214;2023-05-10T02:51:30;7.38;;;6.18;;
62338;SDS011;48368;53.406;6.214;2023-05-10T02:53:57;7.72;;;6.25;;
62338;SDS011;48368;53.406;6.214;2023-05-10T02:56:30;8.45;;;7.13;;
62338;SDS011;48368;53.406;6.214;2023-05-10T02:58:59;8.60;;;7.18;;
62338;SDS011;48368;53.406;6.214;2023-05-10T03:01:25;8.93;;;7.75;;
62338;SDS011;48368;53.406;6.214;2023-05-10T03:03:50;9.05;;;7.60;;
62338;SDS011;48368;53.406;6.214;2023-05-10T03:06:16;8.70;;;6.25;;
62338;SDS011;48368;53.406;6.214;2023-05-10T03:08:42;7.20;;;5.45;;
62338;SDS011;48368;53.406;6.214;2023-05-10T03:13:39;6.60;;;5.18;;
62338;SDS011;48368;53.406;6.214;2023-05-10T03:16:22;5.60;;;4.03;;
62338;SDS011;48368;53.406;6.214;2023-05-10T03:18:59;6.82;;;5.47;;
62338;SDS011;48368;53.406;6.214;2023-05-10T03:21:37;6.15;;;4.57;;
62338;SDS011;48368;53.406;6.214;2023-05-10T03:24:07;6.45;;;5.35;;
62338;SDS011;48368;53.406;6.214;2023-05-10T03:26:34;5.95;;;4.43;;
62338;SDS011;48368;53.406;6.214;2023-05-10T03:29:06;5.57;;;4.22;;
62338;SDS011;48368;53.406;6.214;2023-05-10T03:31:32;7.75;;;5.20;;
62338;SDS011;48368;53.406;6.214;2023-05-10T03:33:58;6.18;;;4.85;;
62338;SDS011;48368;53.406;6.214;2023-05-10T03:36:24;6.40;;;4.55;;
62338;SDS011;48368;53.406;6.214;2023-05-10T03:38:50;6.13;;;4.70;;
62338;SDS011;48368;53.406;6.214;2023-05-10T03:41:15;4.45;;;3.10;;
62338;SDS011;48368;53.406;6.214;2023-05-10T03:43:41;4.90;;;3.40;;
62338;SDS011;48368;53.406;6.214;2023-05-10T03:46:06;6.25;;;4.43;;
62338;SDS011;48368;53.406;6.214;2023-05-10T03:48:32;6.93;;;5.00;;
62338;SDS011;48368;53.406;6.214;2023-05-10T03:50:58;7.45;;;5.63;;
62338;SDS011;48368;53.406;6.214;2023-05-10T03:53:24;10.18;;;7.35;;
62338;SDS011;48368;53.406;6.214;2023-05-10T03:55:50;10.15;;;7.47;;
62338;SDS011;48368;53.406;6.214;2023-05-10T03:58:16;10.48;;;7.85;;
62338;SDS011;48368;53.406;6.214;2023-05-10T04:00:41;7.18;;;5.40;;
62338;SDS011;48368;53.406;6.214;2023-05-10T04:03:10;5.43;;;4.07;;
62338;SDS011;48368;53.406;6.214;2023-05-10T04:05:39;5.18;;;3.65;;
62338;SDS011;48368;53.406;6.214;2023-05-10T04:08:05;5.82;;;3.42;;
62338;SDS011;48368;53.406;6.214;2023-05-10T04:10:31;5.00;;;3.60;;
62338;SDS011;48368;53.406;6.214;2023-05-10T04:12:57;3.70;;;2.47;;
62338;SDS011;48368;53.406;6.214;2023-05-10T04:15:23;3.65;;;2.20;;
62338;SDS011;48368;53.406;6.214;2023-05-10T04:17:49;3.35;;;2.28;;
62338;SDS011;48368;53.406;6.214;2023-05-10T04:20:15;4.40;;;3.03;;
62338;SDS011;48368;53.406;6.214;2023-05-10T04:22:41;5.32;;;3.75;;
62338;SDS011;48368;53.406;6.214;2023-05-10T04:25:06;4.78;;;3.20;;
62338;SDS011;48368;53.406;6.214;2023-05-10T04:27:34;4.95;;;3.35;;
62338;SDS011;48368;53.406;6.214;2023-05-10T04:30:00;3.90;;;2.38;;
62338;SDS011;48368;53.406;6.214;2023-05-10T04:32:26;3.28;;;2.28;;
62338;SDS011;48368;53.406;6.214;2023-05-10T04:34:51;4.55;;;2.08;;
62338;SDS011;48368;53.406;6.214;2023-05-10T04:37:18;4.95;;;2.88;;
62338;SDS011;48368;53.406;6.214;2023-05-10T04:39:44;4.53;;;2.88;;
62338;SDS011;48368;53.406;6.214;2023-05-10T04:42:09;5.78;;;3.38;;
62338;SDS011;48368;53.406;6.214;2023-05-10T04:44:36;4.03;;;2.30;;
62338;SDS011;48368;53.406;6.214;2023-05-10T04:47:02;4.38;;;2.83;;
62338;SDS011;48368;53.406;6.214;2023-05-10T04:49:28;4.32;;;2.95;;
62338;SDS011;48368;53.406;6.214;2023-05-10T04:51:54;4.97;;;3.60;;
62338;SDS011;48368;53.406;6.214;2023-05-10T04:54:20;4.15;;;3.00;;
62338;SDS011;48368;53.406;6.214;2023-05-10T04:56:46;3.97;;;2.70;;
62338;SDS011;48368;53.406;6.214;2023-05-10T04:59:12;2.95;;;1.98;;
62338;SDS011;48368;53.406;6.214;2023-05-10T05:01:37;3.42;;;1.63;;
62338;SDS011;48368;53.406;6.214;2023-05-10T05:04:03;3.28;;;1.77;;
62338;SDS011;48368;53.406;6.214;2023-05-10T05:06:29;2.78;;;1.70;;
62338;SDS011;48368;53.406;6.214;2023-05-10T05:08:54;3.10;;;1.70;;
62338;SDS011;48368;53.406;6.214;2023-05-10T05:11:20;3.63;;;2.53;;
62338;SDS011;48368;53.406;6.214;2023-05-10T05:13:47;3.47;;;2.20;;
62338;SDS011;48368;53.406;6.214;2023-05-10T05:16:12;4.10;;;3.10;;
62338;SDS011;48368;53.406;6.214;2023-05-10T05:18:38;4.95;;;3.70;;
62338;SDS011;48368;53.406;6.214;2023-05-10T05:21:13;6.63;;;4.15;;
62338;SDS011;48368;53.406;6.214;2023-05-10T05:23:40;6.35;;;5.05;;
62338;SDS011;48368;53.406;6.214;2023-05-10T05:26:05;7.47;;;5.45;;
62338;SDS011;48368;53.406;6.214;2023-05-10T05:28:40;7.80;;;5.70;;
62338;SDS011;48368;53.406;6.214;2023-05-10T05:31:08;8.25;;;5.75;;
62338;SDS011;48368;53.406;6.214;2023-05-10T05:33:34;8.15;;;5.88;;
62338;SDS011;48368;53.406;6.214;2023-05-10T05:36:00;6.25;;;4.15;;
62338;SDS011;48368;53.406;6.214;2023-05-10T05:38:27;9.18;;;6.40;;
62338;SDS011;48368;53.406;6.214;2023-05-10T05:40:53;9.55;;;6.43;;
62338;SDS011;48368;53.406;6.214;2023-05-10T05:43:18;7.90;;;6.03;;
62338;SDS011;48368;53.406;6.214;2023-05-10T05:45:44;6.70;;;5.35;;
62338;SDS011;48368;53.406;6.214;2023-05-10T05:48:09;7.57;;;4.53;;
62338;SDS011;48368;53.406;6.214;2023-05-10T05:50:35;6.53;;;5.47;;
62338;SDS011;48368;53.406;6.214;2023-05-10T05:53:01;8.18;;;6.28;;
62338;SDS011;48368;53.406;6.214;2023-05-10T05:55:27;7.93;;;5.32;;
62338;SDS011;48368;53.406;6.214;2023-05-10T05:57:53;10.63;;;6.93;;
62338;SDS011;48368;53.406;6.214;2023-05-10T06:00:19;10.25;;;6.38;;
62338;SDS011;48368;53.406;6.214;2023-05-10T06:02:44;9.48;;;8.30;;
62338;SDS011;48368;53.406;6.214;2023-05-10T06:05:10;9.35;;;6.38;;
62338;SDS011;48368;53.406;6.214;2023-05-10T06:07:35;7.55;;;5.90;;
62338;SDS011;48368;53.406;6.214;2023-05-10T06:10:01;9.20;;;5.63;;
62338;SDS011;48368;53.406;6.214;2023-05-10T06:12:28;5.55;;;3.38;;
62338;SDS011;48368;53.406;6.214;2023-05-10T06:14:53;5.32;;;3.63;;
62338;SDS011;48368;53.406;6.214;2023-05-10T06:17:19;6.32;;;4.68;;
62338;SDS011;48368;53.406;6.214;2023-05-10T06:19:45;5.15;;;3.63;;
62338;SDS011;48368;53.406;6.214;2023-05-10T06:22:10;5.70;;;3.28;;
62338;SDS011;48368;53.406;6.214;2023-05-10T06:24:36;5.45;;;3.45;;
62338;SDS011;48368;53.406;6.214;2023-05-10T06:27:01;4.18;;;2.42;;
62338;SDS011;48368;53.406;6.214;2023-05-10T06:29:27;4.32;;;2.90;;
62338;SDS011;48368;53.406;6.214;2023-05-10T06:31:53;3.47;;;2.58;;
62338;SDS011;48368;53.406;6.214;2023-05-10T06:34:19;4.70;;;3.13;;
62338;SDS011;48368;53.406;6.214;2023-05-10T06:36:45;5.38;;;3.40;;
62338;SDS011;48368;53.406;6.214;2023-05-10T06:39:11;4.22;;;2.92;;
62338;SDS011;48368;53.406;6.214;2023-05-10T06:41:37;4.50;;;2.25;;
62338;SDS011;48368;53.406;6.214;2023-05-10T06:44:03;3.65;;;2.20;;
62338;SDS011;48368;53.406;6.214;2023-05-10T06:46:29;4.35;;;3.10;;
62338;SDS011;48368;53.406;6.214;2023-05-10T06:48:54;3.30;;;2.35;;
62338;SDS011;48368;53.406;6.214;2023-05-10T06:51:20;5.32;;;3.03;;
62338;SDS011;48368;53.406;6.214;2023-05-10T06:53:46;6.38;;;3.35;;
62338;SDS011;48368;53.406;6.214;2023-05-10T06:56:12;6.45;;;3.70;;
62338;SDS011;48368;53.406;6.214;2023-05-10T06:58:38;4.72;;;2.95;;
62338;SDS011;48368;53.406;6.214;2023-05-10T07:01:04;4.45;;;3.00;;
62338;SDS011;48368;53.406;6.214;2023-05-10T07:03:30;3.72;;;2.42;;
62338;SDS011;48368;53.406;6.214;2023-05-10T07:06:02;3.20;;;2.28;;
62338;SDS011;48368;53.406;6.214;2023-05-10T07:08:32;4.15;;;2.78;;
62338;SDS011;48368;53.406;6.214;2023-05-10T07:11:02;4.80;;;3.33;;
62338;SDS011;48368;53.406;6.214;2023-05-10T07:13:32;5.22;;;3.45;;
62338;SDS011;48368;53.406;6.214;2023-05-10T07:15:58;4.55;;;3.30;;
62338;SDS011;48368;53.406;6.214;2023-05-10T07:18:25;4.78;;;3.20;;
62338;SDS011;48368;53.406;6.214;2023-05-10T07:20:51;6.20;;;3.45;;
62338;SDS011;48368;53.406;6.214;2023-05-10T07:23:17;4.82;;;2.83;;
62338;SDS011;48368;53.406;6.214;2023-05-10T07:25:50;4.38;;;2.55;;
62338;SDS011;48368;53.406;6.214;2023-05-10T07:28:21;5.80;;;3.42;;
62338;SDS011;48368;53.406;6.214;2023-05-10T07:30:47;6.90;;;4.07;;
62338;SDS011;48368;53.406;6.214;2023-05-10T07:33:13;6.90;;;5.30;;
62338;SDS011;48368;53.406;6.214;2023-05-10T07:35:39;7.07;;;5.50;;
62338;SDS011;48368;53.406;6.214;2023-05-10T07:38:05;9.45;;;5.72;;
62338;SDS011;48368;53.406;6.214;2023-05-10T07:40:31;6.65;;;4.18;;
62338;SDS011;48368;53.406;6.214;2023-05-10T07:42:57;5.43;;;2.85;;
62338;SDS011;48368;53.406;6.214;2023-05-10T07:45:23;7.80;;;4.72;;
62338;SDS011;48368;53.406;6.214;2023-05-10T07:47:49;6.30;;;4.00;;
62338;SDS011;48368;53.406;6.214;2023-05-10T07:50:15;4.85;;;3.25;;
62338;SDS011;48368;53.406;6.214;2023-05-10T07:52:40;8.20;;;3.40;;
62338;SDS011;48368;53.406;6.214;2023-05-10T07:55:06;7.38;;;3.70;;
62338;SDS011;48368;53.406;6.214;2023-05-10T07:57:33;7.32;;;3.25;;
62338;SDS011;48368;53.406;6.214;2023-05-10T07:59:59;5.68;;;3.45;;
62338;SDS011;48368;53.406;6.214;2023-05-10T08:02:25;8.02;;;4.57;;
62338;SDS011;48368;53.406;6.214;2023-05-10T08:04:50;8.52;;;5.03;;
62338;SDS011;48368;53.406;6.214;2023-05-10T08:07:17;8.25;;;3.17;;
62338;SDS011;48368;53.406;6.214;2023-05-10T08:09:42;7.78;;;4.65;;
62338;SDS011;48368;53.406;6.214;2023-05-10T08:12:08;7.45;;;4.30;;
62338;SDS011;48368;53.406;6.214;2023-05-10T08:14:34;9.82;;;4.63;;
62338;SDS011;48368;53.406;6.214;2023-05-10T08:17:01;8.05;;;4.57;;
62338;SDS011;48368;53.406;6.214;2023-05-10T08:19:28;7.32;;;4.00;;
62338;SDS011;48368;53.406;6.214;2023-05-10T08:21:54;8.45;;;4.60;;
62338;SDS011;48368;53.406;6.214;2023-05-10T08:24:20;10.02;;;5.35;;
62338;SDS011;48368;53.406;6.214;2023-05-10T08:26:47;8.60;;;4.35;;
62338;SDS011;48368;53.406;6.214;2023-05-10T08:29:13;7.65;;;4.22;;
62338;SDS011;48368;53.406;6.214;2023-05-10T08:31:39;8.93;;;5.35;;
62338;SDS011;48368;53.406;6.214;2023-05-10T08:34:04;5.57;;;3.50;;
62338;SDS011;48368;53.406;6.214;2023-05-10T08:36:30;5.55;;;3.20;;
62338;SDS011;48368;53.406;6.214;2023-05-10T08:38:57;5.70;;;3.17;;
62338;SDS011;48368;53.406;6.214;2023-05-10T08:41:23;7.22;;;3.58;;
62338;SDS011;48368;53.406;6.214;2023-05-10T08:43:51;8.43;;;4.40;;
62338;SDS011;48368;53.406;6.214;2023-05-10T08:46:18;5.65;;;3.40;;
62338;SDS011;48368;53.406;6.214;2023-05-10T08:48:46;8.77;;;3.50;;
62338;SDS011;48368;53.406;6.214;2023-05-10T08:51:47;6.40;;;3.83;;
62338;SDS011;48368;53.406;6.214;2023-05-10T08:54:07;5.32;;;3.00;;
62338;SDS011;48368;53.406;6.214;2023-05-10T08:56:33;4.80;;;2.47;;
62338;SDS011;48368;53.406;6.214;2023-05-10T08:58:58;4.50;;;2.22;;
62338;SDS011;48368;53.406;6.214;2023-05-10T09:01:25;4.38;;;2.22;;
62338;SDS011;48368;53.406;6.214;2023-05-10T09:03:52;6.70;;;2.75;;
62338;SDS011;48368;53.406;6.214;2023-05-10T09:06:18;5.68;;;3.30;;
62338;SDS011;48368;53.406;6.214;2023-05-10T09:08:44;5.22;;;3.08;;
62338;SDS011;48368;53.406;6.214;2023-05-10T09:11:11;5.60;;;2.92;;
62338;SDS011;48368;53.406;6.214;2023-05-10T09:13:37;7.35;;;2.95;;
62338;SDS011;48368;53.406;6.214;2023-05-10T09:16:03;5.13;;;2.85;;
62338;SDS011;48368;53.406;6.214;2023-05-10T09:18:30;6.43;;;2.80;;
62338;SDS011;48368;53.406;6.214;2023-05-10T09:20:55;6.32;;;3.28;;
62338;SDS011;48368;53.406;6.214;2023-05-10T09:23:21;6.40;;;3.00;;
62338;SDS011;48368;53.406;6.214;2023-05-10T09:25:47;5.53;;;3.08;;
62338;SDS011;48368;53.406;6.214;2023-05-10T09:28:18;4.68;;;2.78;;
62338;SDS011;48368;53.406;6.214;2023-05-10T09:30:43;5.63;;;2.53;;
62338;SDS011;48368;53.406;6.214;2023-05-10T09:33:18;6.65;;;2.90;;
62338;SDS011;48368;53.406;6.214;2023-05-10T09:35:44;5.45;;;3.05;;
62338;SDS011;48368;53.406;6.214;2023-05-10T09:38:10;5.38;;;3.08;;
62338;SDS011;48368;53.406;6.214;2023-05-10T09:40:36;6.75;;;3.50;;
62338;SDS011;48368;53.406;6.214;2023-05-10T09:43:11;6.75;;;3.65;;
62338;SDS011;48368;53.406;6.214;2023-05-10T09:45:38;8.10;;;3.97;;
62338;SDS011;48368;53.406;6.214;2023-05-10T09:48:06;8.15;;;4.53;;
62338;SDS011;48368;53.406;6.214;2023-05-10T09:50:32;6.82;;;3.97;;
62338;SDS011;48368;53.406;6.214;2023-05-10T09:52:59;7.30;;;4.47;;
62338;SDS011;48368;53.406;6.214;2023-05-10T09:55:40;7.65;;;4.05;;
62338;SDS011;48368;53.406;6.214;2023-05-10T09:58:09;8.63;;;4.68;;
62338;SDS011;48368;53.406;6.214;2023-05-10T10:00:36;7.22;;;3.75;;
62338;SDS011;48368;53.406;6.214;2023-05-10T10:03:03;8.15;;;3.80;;
62338;SDS011;48368;53.406;6.214;2023-05-10T10:05:31;7.93;;;3.92;;
62338;SDS011;48368;53.406;6.214;2023-05-10T10:07:58;6.32;;;3.55;;
62338;SDS011;48368;53.406;6.214;2023-05-10T10:10:24;6.53;;;4.28;;
62338;SDS011;48368;53.406;6.214;2023-05-10T10:12:51;10.68;;;5.40;;
62338;SDS011;48368;53.406;6.214;2023-05-10T10:15:17;8.57;;;5.05;;
62338;SDS011;48368;53.406;6.214;2023-05-10T10:17:43;7.28;;;5.05;;
62338;SDS011;48368;53.406;6.214;2023-05-10T10:20:10;11.15;;;5.40;;
62338;SDS011;48368;53.406;6.214;2023-05-10T10:22:36;11.77;;;6.00;;
62338;SDS011;48368;53.406;6.214;2023-05-10T10:25:03;9.63;;;5.28;;
62338;SDS011;48368;53.406;6.214;2023-05-10T10:35:47;9.20;;;5.93;;
62338;SDS011;48368;53.406;6.214;2023-05-10T10:38:13;10.32;;;5.85;;
62338;SDS011;48368;53.406;6.214;2023-05-10T10:40:39;10.35;;;6.15;;
62338;SDS011;48368;53.406;6.214;2023-05-10T10:43:21;10.80;;;6.18;;
62338;SDS011;48368;53.406;6.214;2023-05-10T10:46:12;13.60;;;7.28;;
62338;SDS011;48368;53.406;6.214;2023-05-10T10:48:40;10.15;;;6.22;;
62338;SDS011;48368;53.406;6.214;2023-05-10T10:51:09;11.27;;;7.15;;
62338;SDS011;48368;53.406;6.214;2023-05-10T10:53:34;14.27;;;7.05;;
62338;SDS011;48368;53.406;6.214;2023-05-10T10:56:05;14.63;;;7.03;;
62338;SDS011;48368;53.406;6.214;2023-05-10T10:58:35;17.13;;;7.20;;
62338;SDS011;48368;53.406;6.214;2023-05-10T11:01:12;17.95;;;8.57;;
62338;SDS011;48368;53.406;6.214;2023-05-10T11:06:29;19.30;;;8.63;;
62338;SDS011;48368;53.406;6.214;2023-05-10T11:08:59;16.40;;;8.88;;
62338;SDS011;48368;53.406;6.214;2023-05-10T11:11:31;18.15;;;8.75;;
62338;SDS011;48368;53.406;6.214;2023-05-10T11:14:02;15.35;;;9.07;;
62338;SDS011;48368;53.406;6.214;2023-05-10T11:16:29;13.85;;;8.77;;
62338;SDS011;48368;53.406;6.214;2023-05-10T11:19:15;13.95;;;8.27;;
62338;SDS011;48368;53.406;6.214;2023-05-10T11:24:22;11.93;;;8.10;;
62338;SDS011;48368;53.406;6.214;2023-05-10T11:26:50;11.18;;;8.13;;
62338;SDS011;48368;53.406;6.214;2023-05-10T11:29:16;11.27;;;7.72;;
62338;SDS011;48368;53.406;6.214;2023-05-10T11:31:46;11.43;;;7.55;;
62338;SDS011;48368;53.406;6.214;2023-05-10T11:34:22;12.40;;;7.22;;
62338;SDS011;48368;53.406;6.214;2023-05-10T11:36:53;12.10;;;7.63;;
62338;SDS011;48368;53.406;6.214;2023-05-10T11:39:20;12.30;;;7.63;;
62338;SDS011;48368;53.406;6.214;2023-05-10T11:41:49;9.07;;;6.68;;
62338;SDS011;48368;53.406;6.214;2023-05-10T11:44:15;12.48;;;7.55;;
62338;SDS011;48368;53.406;6.214;2023-05-10T11:46:41;12.88;;;8.13;;
62338;SDS011;48368;53.406;6.214;2023-05-10T11:49:07;11.18;;;7.38;;
62338;SDS011;48368;53.406;6.214;2023-05-10T11:51:33;13.18;;;8.50;;
62338;SDS011;48368;53.406;6.214;2023-05-10T11:54:07;11.63;;;7.50;;
62338;SDS011;48368;53.406;6.214;2023-05-10T11:56:34;11.98;;;7.95;;
62338;SDS011;48368;53.406;6.214;2023-05-10T11:59:00;11.38;;;7.63;;
62338;SDS011;48368;53.406;6.214;2023-05-10T12:01:27;11.98;;;7.90;;
62338;SDS011;48368;53.406;6.214;2023-05-10T12:03:54;12.25;;;7.82;;
62338;SDS011;48368;53.406;6.214;2023-05-10T12:06:26;13.68;;;7.55;;
62338;SDS011;48368;53.406;6.214;2023-05-10T12:08:53;11.30;;;8.07;;
62338;SDS011;48368;53.406;6.214;2023-05-10T12:11:19;13.95;;;8.43;;
62338;SDS011;48368;53.406;6.214;2023-05-10T12:13:49;11.40;;;8.15;;
62338;SDS011;48368;53.406;6.214;2023-05-10T12:16:16;11.85;;;8.20;;
62338;SDS011;48368;53.406;6.214;2023-05-10T12:18:42;11.27;;;8.00;;
62338;SDS011;48368;53.406;6.214;2023-05-10T12:21:09;10.77;;;7.30;;
62338;SDS011;48368;53.406;6.214;2023-05-10T12:23:38;13.00;;;7.65;;
62338;SDS011;48368;53.406;6.214;2023-05-10T12:26:04;11.63;;;7.75;;
62338;SDS011;48368;53.406;6.214;2023-05-10T12:28:30;11.70;;;8.25;;
62338;SDS011;48368;53.406;6.214;2023-05-10T12:30:57;12.75;;;9.13;;
62338;SDS011;48368;53.406;6.214;2023-05-10T12:33:24;12.45;;;8.20;;
62338;SDS011;48368;53.406;6.214;2023-05-10T12:35:51;12.50;;;7.93;;
62338;SDS011;48368;53.406;6.214;2023-05-10T12:40:51;11.73;;;8.27;;
62338;SDS011;48368;53.406;6.214;2023-05-10T12:43:17;12.55;;;8.20;;
62338;SDS011;48368;53.406;6.214;2023-05-10T12:45:42;13.35;;;9.32;;
62338;SDS011;48368;53.406;6.214;2023-05-10T12:48:12;15.07;;;8.38;;
62338;SDS011;48368;53.406;6.214;2023-05-10T12:50:38;13.85;;;8.85;;
62338;SDS011;48368;53.406;6.214;2023-05-10T12:53:04;14.35;;;9.80;;
62338;SDS011;48368;53.406;6.214;2023-05-10T12:55:29;17.20;;;10.02;;
62338;SDS011;48368;53.406;6.214;2023-05-10T12:57:55;13.65;;;9.05;;
62338;SDS011;48368;53.406;6.214;2023-05-10T13:00:21;17.23;;;9.88;;
62338;SDS011;48368;53.406;6.214;2023-05-10T13:02:47;14.25;;;9.73;;
62338;SDS011;48368;53.406;6.214;2023-05-10T13:05:12;15.77;;;10.25;;
62338;SDS011;48368;53.406;6.214;2023-05-10T13:07:38;14.52;;;9.75;;
62338;SDS011;48368;53.406;6.214;2023-05-10T13:10:04;16.30;;;10.25;;
62338;SDS011;48368;53.406;6.214;2023-05-10T13:12:31;18.45;;;11.57;;
62338;SDS011;48368;53.406;6.214;2023-05-10T13:14:57;16.65;;;11.07;;
62338;SDS011;48368;53.406;6.214;2023-05-10T13:17:22;12.65;;;8.82;;
62338;SDS011;48368;53.406;6.214;2023-05-10T13:19:50;12.02;;;7.93;;
62338;SDS011;48368;53.406;6.214;2023-05-10T13:22:15;10.02;;;7.28;;
62338;SDS011;48368;53.406;6.214;2023-05-10T13:24:41;12.32;;;7.28;;
62338;SDS011;48368;53.406;6.214;2023-05-10T13:27:07;10.48;;;8.45;;
62338;SDS011;48368;53.406;6.214;2023-05-10T13:29:33;12.27;;;8.70;;
62338;SDS011;48368;53.406;6.214;2023-05-10T13:31:58;13.32;;;9.90;;
62338;SDS011;48368;53.406;6.214;2023-05-10T13:34:24;12.77;;;8.85;;
62338;SDS011;48368;53.406;6.214;2023-05-10T13:36:50;11.30;;;9.15;;
62338;SDS011;48368;53.406;6.214;2023-05-10T13:39:15;14.25;;;9.32;;
62338;SDS011;48368;53.406;6.214;2023-05-10T13:41:41;15.57;;;10.13;;
62338;SDS011;48368;53.406;6.214;2023-05-10T13:44:07;13.60;;;10.27;;
62338;SDS011;48368;53.406;6.214;2023-05-10T13:46:33;12.98;;;10.45;;
62338;SDS011;48368;53.406;6.214;2023-05-10T13:48:58;11.45;;;9.45;;
62338;SDS011;48368;53.406;6.214;2023-05-10T13:51:24;9.93;;;7.72;;
62338;SDS011;48368;53.406;6.214;2023-05-10T13:53:50;10.13;;;7.47;;
62338;SDS011;48368;53.406;6.214;2023-05-10T13:56:15;10.30;;;7.00;;
62338;SDS011;48368;53.406;6.214;2023-05-10T13:58:41;10.85;;;8.10;;
62338;SDS011;48368;53.406;6.214;2023-05-10T14:01:07;9.20;;;7.60;;
62338;SDS011;48368;53.406;6.214;2023-05-10T14:03:32;9.68;;;7.38;;
62338;SDS011;48368;53.406;6.214;2023-05-10T14:05:58;9.63;;;7.30;;
62338;SDS011;48368;53.406;6.214;2023-05-10T14:08:24;9.65;;;6.93;;
62338;SDS011;48368;53.406;6.214;2023-05-10T14:10:52;10.23;;;7.20;;
62338;SDS011;48368;53.406;6.214;2023-05-10T14:13:17;8.88;;;6.78;;
62338;SDS011;48368;53.406;6.214;2023-05-10T14:15:43;9.90;;;7.38;;
62338;SDS011;48368;53.406;6.214;2023-05-10T14:18:09;9.32;;;6.22;;
62338;SDS011;48368;53.406;6.214;2023-05-10T14:20:34;8.45;;;5.75;;
62338;SDS011;48368;53.406;6.214;2023-05-10T14:23:00;6.57;;;5.55;;
62338;SDS011;48368;53.406;6.214;2023-05-10T14:25:26;6.43;;;4.90;;
62338;SDS011;48368;53.406;6.214;2023-05-10T14:27:51;6.72;;;5.13;;
62338;SDS011;48368;53.406;6.214;2023-05-10T14:30:19;6.55;;;4.88;;
62338;SDS011;48368;53.406;6.214;2023-05-10T14:32:45;7.50;;;5.05;;
62338;SDS011;48368;53.406;6.214;2023-05-10T14:35:11;8.38;;;6.45;;
62338;SDS011;48368;53.406;6.214;2023-05-10T14:37:38;6.60;;;5.15;;
62338;SDS011;48368;53.406;6.214;2023-05-10T14:40:03;7.15;;;5.35;;
62338;SDS011;48368;53.406;6.214;2023-05-10T14:42:29;7.60;;;5.40;;
62338;SDS011;48368;53.406;6.214;2023-05-10T14:44:56;7.20;;;4.90;;
62338;SDS011;48368;53.406;6.214;2023-05-10T14:47:22;7.00;;;4.50;;
62338;SDS011;48368;53.406;6.214;2023-05-10T14:49:47;7.75;;;5.00;;
62338;SDS011;48368;53.406;6.214;2023-05-10T14:52:13;7.20;;;4.30;;
62338;SDS011;48368;53.406;6.214;2023-05-10T14:54:39;6.43;;;4.25;;
62338;SDS011;48368;53.406;6.214;2023-05-10T14:57:06;6.65;;;4.25;;
62338;SDS011;48368;53.406;6.214;2023-05-10T14:59:32;5.88;;;4.05;;
62338;SDS011;48368;53.406;6.214;2023-05-10T15:01:57;7.03;;;4.50;;
62338;SDS011;48368;53.406;6.214;2023-05-10T15:04:23;7.72;;;5.22;;
62338;SDS011;48368;53.406;6.214;2023-05-10T15:06:49;8.10;;;4.60;;
62338;SDS011;48368;53.406;6.214;2023-05-10T15:09:15;6.80;;;4.40;;
62338;SDS011;48368;53.406;6.214;2023-05-10T15:11:41;7.72;;;5.05;;
62338;SDS011;48368;53.406;6.214;2023-05-10T15:14:07;6.95;;;5.25;;